This is the latest recevied weather packets stored in our database for station/object KB4MOX. If no packets are shown the sender has not sent any weather packets the latest 10 day(s).
| Time | Temp. | Humidity | Pressure | Rain* | Wind** | Luminosity | Snow |
|---|---|---|---|---|---|---|---|
| 1787679501 | 33.33° C | 45% | 1016.8 hPa | 0 mm | - | 812 W/m² | - |
| 1787679198 | 33.33° C | 45% | 1016.5 hPa | 0 mm | - | 326 W/m² | - |
| 1787678893 | 33.89° C | 44% | 1016.6 hPa | 0 mm | - | 156 W/m² | - |
| 1787678592 | 32.78° C | 47% | 1017 hPa | 0 mm | - | 789 W/m² | - |
| 1787678288 | 33.89° C | 45% | 1016.9 hPa | 0 mm | - | 158 W/m² | - |
| 1787677983 | 33.89° C | 43% | 1016.9 hPa | 0 mm | - | 165 W/m² | - |
| 1787677678 | 33.89° C | 45% | 1017.1 hPa | 0 mm | - | 803 W/m² | - |
| 1787677377 | 33.89° C | 45% | 1017.2 hPa | 0 mm | - | 775 W/m² | - |
| 1787677070 | 33.33° C | 48% | 1017 hPa | 0 mm | - | 757 W/m² | - |
| 1787676767 | 33.33° C | 46% | 1017.2 hPa | 0 mm | - | 751 W/m² | - |
| 1787676461 | 33.33° C | 47% | 1017.2 hPa | 0 mm | - | 747 W/m² | - |
| 1787676159 | 32.78° C | 47% | 1017.3 hPa | 0 mm | - | 747 W/m² | - |
| 1787675852 | 33.33° C | 47% | 1017.4 hPa | 0 mm | - | 744 W/m² | - |
| 1787675549 | 32.78° C | 46% | 1017.4 hPa | 0 mm | - | 738 W/m² | - |
| 1787675247 | 32.78° C | 47% | 1017.6 hPa | 0 mm | - | 730 W/m² | - |
| 1787674937 | 32.22° C | 48% | 1017.6 hPa | 0 mm | - | 721 W/m² | - |
| 1787674632 | 32.78° C | 46% | 1017.8 hPa | 0 mm | - | 714 W/m² | - |
| 1787674327 | 32.78° C | 48% | 1017.7 hPa | 0 mm | - | 702 W/m² | - |
| 1787674022 | 31.67° C | 49% | 1017.8 hPa | 0 mm | - | 697 W/m² | - |
| 1787673717 | 32.22° C | 48% | 1017.8 hPa | 0 mm | - | 691 W/m² | - |
| 1787673417 | 32.22° C | 50% | 1017.8 hPa | 0 mm | - | 678 W/m² | - |
| 1787673111 | 32.22° C | 49% | 1018.1 hPa | 0 mm | - | 668 W/m² | - |
| 1787672805 | 31.11° C | 52% | 1018.1 hPa | 0 mm | - | 657 W/m² | - |
| 1787672501 | 31.11° C | 53% | 1018.2 hPa | 0 mm | - | 649 W/m² | - |
| 1787672200 | 30.56° C | 53% | 1018.3 hPa | 0 mm | - | 639 W/m² | - |
* Rain latest hour (hover to see other rain measurements)
** Current wind speed in m/s (hover to see current wind gust speed)